Prineville, Oregon
Current Conditions -  °F | °C
As of 5:15 PM on Thursday 18 Dec 2014 (Local Time) from KS39 Reporting Station
Overcast Overcast  
Wind Chill:   Ceiling: 5000
Heat Index:   Visibility: 10mi
Dew Point:   Wind: 7mph
Humidity: 66%   Direction: 130°SE
Pressure: 29.92"   Gusts: 13mph
Location:  44.3°N, 120.84°W
Report Text: KS39 190115Z AUTO 13006G11KT 10SM OVC050 07/01 A2992 RMK AO2
Loading
Personal Weather Stations






























Interactive Weather Map New forecast layout! Learn more

10-Day Weather Forecast

Advertisements
Track Severe Weather on mobile